Time,TemperatureF,DewpointF,PressureIn,WindDirection,WindDirectionDegrees,WindSpeedMPH,WindSpeedGustMPH,Humidity,HourlyPrecipIn,Conditions,Clouds,dailyrainin,SoftwareType,DateUTC
2013-02-02 06:29:00,47.4,37.8,30.15,NNE,22,0.0,0.0,69,0.00,,SKC,0.00,VWS V14.00,2013-02-02 11:29:00,
2013-02-02 06:34:00,47.4,37.8,30.15,NNE,22,0.0,0.0,69,0.00,,SKC,0.00,VWS V14.00,2013-02-02 11:34:00,
2013-02-02 06:39:00,47.3,37.7,30.15,NNE,22,0.0,0.0,69,0.00,,SKC,0.00,VWS V14.00,2013-02-02 11:39:00,
2013-02-02 06:44:00,47.3,37.7,30.15,NNE,22,0.0,0.0,69,0.00,,SKC,0.00,VWS V14.00,2013-02-02 11:44:00,
2013-02-02 06:49:00,47.3,37.7,30.15,NNE,22,0.0,0.0,69,0.00,,SKC,0.00,VWS V14.00,2013-02-02 11:49:00,
2013-02-02 06:54:00,47.3,37.7,30.15,NNE,22,0.0,0.0,69,0.00,,SKC,0.00,VWS V14.00,2013-02-02 11:54:00,
2013-02-02 07:00:00,47.1,37.5,30.15,NNE,22,0.0,0.0,69,0.00,,SKC,0.00,VWS V14.00,2013-02-02 12:00:00,
2013-02-02 07:05:00,47.1,37.5,30.16,North,0,0.0,0.0,69,0.00,,SKC,0.00,VWS V14.00,2013-02-02 12:05:00,
2013-02-02 07:10:00,46.9,37.6,30.16,North,0,0.0,0.0,70,0.00,,SKC,0.00,VWS V14.00,2013-02-02 12:10:00,
2013-02-02 07:15:00,46.9,37.6,30.15,North,0,0.0,0.0,70,0.00,,SKC,0.00,VWS V14.00,2013-02-02 12:15:00,
2013-02-02 07:20:00,46.7,37.5,30.16,North,0,0.0,0.0,70,0.00,,SKC,0.00,VWS V14.00,2013-02-02 12:20:00,
2013-02-02 07:25:00,46.7,37.5,30.16,North,0,0.0,0.0,70,0.00,,SKC,0.00,VWS V14.00,2013-02-02 12:25:00,
2013-02-02 07:30:00,46.9,37.6,30.16,NNW,338,0.0,0.0,70,0.00,,SKC,0.00,VWS V14.00,2013-02-02 12:30:00,
2013-02-02 07:35:00,46.9,37.6,30.16,NNW,338,0.0,0.0,70,0.00,,SKC,0.00,VWS V14.00,2013-02-02 12:35:00,
2013-02-02 07:40:00,46.9,37.6,30.16,NNW,338,0.0,0.0,70,0.00,,SKC,0.00,VWS V14.00,2013-02-02 12:40:00,
2013-02-02 07:45:00,46.9,37.6,30.16,North,0,0.0,0.0,70,0.00,,SKC,0.00,VWS V14.00,2013-02-02 12:45:00,
2013-02-02 07:50:00,46.9,37.6,30.16,North,0,0.0,0.0,70,0.00,,SKC,0.00,VWS V14.00,2013-02-02 12:50:00,
2013-02-02 07:55:00,47.1,37.8,30.16,North,0,0.0,0.0,70,0.00,,SKC,0.00,VWS V14.00,2013-02-02 12:55:00,
2013-02-02 08:00:00,47.1,37.8,30.16,North,0,0.0,0.0,70,0.00,,SKC,0.00,VWS V14.00,2013-02-02 13:00:00,
2013-02-02 08:06:00,47.4,38.5,30.16,North,0,0.0,0.0,71,0.00,,SKC,0.00,VWS V14.00,2013-02-02 13:06:00,
2013-02-02 08:11:00,47.4,38.5,30.16,North,0,0.0,0.0,71,0.00,,SKC,0.00,VWS V14.00,2013-02-02 13:11:00,
2013-02-02 08:16:00,47.8,38.9,30.17,North,0,0.0,0.0,71,0.00,,SKC,0.00,VWS V14.00,2013-02-02 13:16:00,
2013-02-02 08:21:00,48.2,39.2,30.16,North,0,0.0,0.0,71,0.00,,SKC,0.00,VWS V14.00,2013-02-02 13:21:00,
2013-02-02 08:26:00,48.5,39.9,30.16,North,0,0.0,0.0,72,0.00,,SKC,0.00,VWS V14.00,2013-02-02 13:26:00,
2013-02-02 08:31:00,48.9,40.3,30.17,North,0,0.0,0.0,72,0.00,,SKC,0.00,VWS V14.00,2013-02-02 13:31:00,
2013-02-02 08:36:00,49.1,40.5,30.17,North,0,0.0,0.0,72,0.00,,SKC,0.00,VWS V14.00,2013-02-02 13:36:00,
2013-02-02 08:41:00,49.6,40.6,30.17,North,0,0.0,0.0,71,0.00,,SKC,0.00,VWS V14.00,2013-02-02 13:41:00,
2013-02-02 08:46:00,50.0,41.3,30.17,North,0,0.0,0.0,72,0.00,,SKC,0.00,VWS V14.00,2013-02-02 13:46:00,
2013-02-02 08:51:00,50.3,41.3,30.17,North,0,0.0,0.0,71,0.00,,SKC,0.00,VWS V14.00,2013-02-02 13:51:00,
2013-02-02 08:56:00,51.0,41.9,30.17,NNW,338,0.0,0.0,71,0.00,,SKC,0.00,VWS V14.00,2013-02-02 13:56:00,
2013-02-02 09:01:00,51.4,42.3,30.17,North,0,0.0,0.0,71,0.00,,SKC,0.00,VWS V14.00,2013-02-02 14:01:00,
2013-02-02 09:07:00,51.6,42.5,30.17,North,0,0.0,0.0,71,0.00,,SKC,0.00,VWS V14.00,2013-02-02 14:07:00,
2013-02-02 09:12:00,52.5,43.0,30.17,North,0,0.0,0.0,70,0.00,,SKC,0.00,VWS V14.00,2013-02-02 14:12:00,
2013-02-02 09:17:00,52.8,43.3,30.17,North,0,0.0,0.0,70,0.00,,SKC,0.00,VWS V14.00,2013-02-02 14:17:00,
2013-02-02 09:22:00,53.6,43.3,30.17,North,0,0.0,0.0,68,0.00,,SKC,0.00,VWS V14.00,2013-02-02 14:22:00,
2013-02-02 09:27:00,54.1,43.8,30.17,North,0,0.0,0.0,68,0.00,,SKC,0.00,VWS V14.00,2013-02-02 14:27:00,
2013-02-02 09:32:00,54.5,44.2,30.17,North,0,0.0,0.0,68,0.00,,SKC,0.00,VWS V14.00,2013-02-02 14:32:00,
2013-02-02 09:37:00,55.2,44.8,30.17,North,0,0.0,0.0,68,0.00,,SKC,0.00,VWS V14.00,2013-02-02 14:37:00,
2013-02-02 09:42:00,55.7,44.5,30.17,NNE,22,0.0,0.0,66,0.00,,SKC,0.00,VWS V14.00,2013-02-02 14:42:00,
2013-02-02 09:47:00,56.1,44.9,30.17,NNE,22,0.0,0.0,66,0.00,,SKC,0.00,VWS V14.00,2013-02-02 14:47:00,
2013-02-02 09:52:00,56.8,45.2,30.17,NNE,22,0.0,0.0,65,0.00,,SKC,0.00,VWS V14.00,2013-02-02 14:52:00,
2013-02-02 09:57:00,57.2,45.2,30.17,North,0,0.0,0.0,64,0.00,,SKC,0.00,VWS V14.00,2013-02-02 14:57:00,
2013-02-02 10:03:00,57.7,45.2,30.17,North,0,0.0,0.0,63,0.00,,SKC,0.00,VWS V14.00,2013-02-02 15:03:00,
2013-02-02 10:08:00,58.2,45.3,30.17,East,90,0.0,0.0,62,0.00,,SKC,0.00,VWS V14.00,2013-02-02 15:08:00,
2013-02-02 10:13:00,58.8,45.8,30.16,ENE,68,0.0,0.0,62,0.00,,SKC,0.00,VWS V14.00,2013-02-02 15:13:00,
2013-02-02 10:18:00,59.5,45.6,30.16,North,0,0.0,0.0,60,0.00,,SKC,0.00,VWS V14.00,2013-02-02 15:18:00,
2013-02-02 10:23:00,59.9,45.5,30.16,NNE,22,0.0,0.0,59,0.00,,SKC,0.00,VWS V14.00,2013-02-02 15:23:00,
2013-02-02 10:28:00,60.4,46.0,30.16,North,0,0.0,0.0,59,0.00,,SKC,0.00,VWS V14.00,2013-02-02 15:28:00,
2013-02-02 10:33:00,61.1,45.3,30.15,NNE,22,0.0,0.0,56,0.00,,SKC,0.00,VWS V14.00,2013-02-02 15:33:00,
2013-02-02 10:38:00,61.5,46.1,30.15,NNE,22,0.0,0.0,57,0.00,,SKC,0.00,VWS V14.00,2013-02-02 15:38:00,
2013-02-02 10:43:00,62.2,46.3,30.15,SE,135,0.0,0.0,56,0.00,,SKC,0.00,VWS V14.00,2013-02-02 15:43:00,
2013-02-02 10:49:00,62.9,46.0,30.15,NNW,338,0.0,0.0,54,0.00,,SKC,0.00,VWS V14.00,2013-02-02 15:49:00,
2013-02-02 10:54:00,63.3,46.4,30.15,NNE,22,0.0,0.0,54,0.00,,SKC,0.00,VWS V14.00,2013-02-02 15:54:00,
2013-02-02 10:59:00,64.0,46.0,30.14,NE,45,0.0,0.0,52,0.00,,SKC,0.00,VWS V14.00,2013-02-02 15:59:00,
2013-02-02 11:04:00,64.4,45.4,30.14,SE,135,0.0,0.0,50,0.00,,SKC,0.00,VWS V14.00,2013-02-02 16:04:00,
2013-02-02 11:09:00,64.5,45.5,30.14,NNE,22,0.0,0.0,50,0.00,,SKC,0.00,VWS V14.00,2013-02-02 16:09:00,
2013-02-02 11:14:00,64.9,45.3,30.14,ESE,112,0.0,0.0,49,0.00,,SKC,0.00,VWS V14.00,2013-02-02 16:14:00,
2013-02-02 11:19:00,65.1,44.9,30.13,ESE,112,0.0,0.0,48,0.00,,SKC,0.00,VWS V14.00,2013-02-02 16:19:00,
2013-02-02 11:25:00,65.8,44.5,30.13,ENE,68,0.0,0.0,46,0.00,,SKC,0.00,VWS V14.00,2013-02-02 16:25:00,
2013-02-02 11:30:00,66.0,44.1,30.13,NNW,338,0.0,0.0,45,0.00,,SKC,0.00,VWS V14.00,2013-02-02 16:30:00,
2013-02-02 11:35:00,66.0,44.7,30.14,NW,315,0.0,0.0,46,0.00,,SKC,0.00,VWS V14.00,2013-02-02 16:35:00,
2013-02-02 11:40:00,66.3,43.2,30.13,ESE,112,0.0,0.0,43,0.00,,SKC,0.00,VWS V14.00,2013-02-02 16:40:00,
2013-02-02 11:45:00,66.5,42.7,30.13,ESE,112,0.0,0.0,42,0.00,,SKC,0.00,VWS V14.00,2013-02-02 16:45:00,
2013-02-02 11:50:00,66.9,43.1,30.13,South,180,0.0,0.0,42,0.00,,SKC,0.00,VWS V14.00,2013-02-02 16:50:00,
2013-02-02 11:55:00,67.2,41.4,30.13,North,0,0.0,0.0,39,0.00,,SKC,0.00,VWS V14.00,2013-02-02 16:55:00,
2013-02-02 12:00:00,67.6,41.8,30.12,North,0,0.0,0.0,39,0.00,,SKC,0.00,VWS V14.00,2013-02-02 17:00:00,
2013-02-02 12:05:00,68.0,41.5,30.12,North,0,0.0,0.0,38,0.00,,SKC,0.00,VWS V14.00,2013-02-02 17:05:00,
2013-02-02 12:10:00,68.0,40.8,30.12,NNE,22,0.0,0.0,37,0.00,,SKC,0.00,VWS V14.00,2013-02-02 17:10:00,
2013-02-02 12:15:00,67.8,40.6,30.11,NNE,22,0.0,0.0,37,0.00,,SKC,0.00,VWS V14.00,2013-02-02 17:15:00,
2013-02-02 12:20:00,67.8,40.6,30.11,NNW,338,0.0,0.0,37,0.00,,SKC,0.00,VWS V14.00,2013-02-02 17:20:00,
2013-02-02 12:26:00,68.3,41.7,30.11,NNW,338,0.0,0.0,38,0.00,,SKC,0.00,VWS V14.00,2013-02-02 17:26:00,
2013-02-02 12:31:00,68.9,42.3,30.11,SSW,202,0.0,0.0,38,0.00,,SKC,0.00,VWS V14.00,2013-02-02 17:31:00,
2013-02-02 12:36:00,69.4,42.0,30.10,SSW,202,0.0,0.0,37,0.00,,SKC,0.00,VWS V14.00,2013-02-02 17:36:00,
2013-02-02 12:41:00,69.9,43.8,30.10,South,180,0.0,0.0,39,0.00,,SKC,0.00,VWS V14.00,2013-02-02 17:41:00,
2013-02-02 12:46:00,70.3,43.5,30.09,North,0,0.0,0.0,38,0.00,,SKC,0.00,VWS V14.00,2013-02-02 17:46:00,
2013-02-02 12:51:00,70.5,43.0,30.09,SSW,202,0.0,0.0,37,0.00,,SKC,0.00,VWS V14.00,2013-02-02 17:51:00,
2013-02-02 12:56:00,70.7,43.2,30.08,SSW,202,0.0,0.0,37,0.00,,SKC,0.00,VWS V14.00,2013-02-02 17:56:00,
2013-02-02 13:01:00,71.2,44.3,30.08,SW,225,0.0,0.0,38,0.00,,SKC,0.00,VWS V14.00,2013-02-02 18:01:00,
2013-02-02 13:06:00,71.7,44.8,30.08,SSW,202,0.0,0.0,38,0.00,,SKC,0.00,VWS V14.00,2013-02-02 18:06:00,
2013-02-02 13:11:00,72.1,45.1,30.08,SSE,158,0.0,0.0,38,0.00,,SKC,0.00,VWS V14.00,2013-02-02 18:11:00,
2013-02-02 13:16:00,72.3,44.6,30.08,SSE,158,0.0,0.0,37,0.00,,SKC,0.00,VWS V14.00,2013-02-02 18:16:00,
2013-02-02 13:22:00,72.3,43.9,30.07,NNW,338,0.0,0.0,36,0.00,,SKC,0.00,VWS V14.00,2013-02-02 18:22:00,
2013-02-02 13:27:00,72.1,43.7,30.06,NNW,338,0.0,0.0,36,0.00,,SKC,0.00,VWS V14.00,2013-02-02 18:27:00,
2013-02-02 13:32:00,71.6,43.3,30.06,ENE,68,0.0,0.0,36,0.00,,SKC,0.00,VWS V14.00,2013-02-02 18:32:00,
2013-02-02 13:37:00,71.7,44.8,30.06,NE,45,0.0,0.0,38,0.00,,SKC,0.00,VWS V14.00,2013-02-02 18:37:00,
2013-02-02 13:42:00,71.9,44.9,30.06,WSW,248,0.0,0.0,38,0.00,,SKC,0.00,VWS V14.00,2013-02-02 18:42:00,
2013-02-02 13:47:00,72.3,45.3,30.05,SSW,202,0.0,0.0,38,0.00,,SKC,0.00,VWS V14.00,2013-02-02 18:47:00,
2013-02-02 13:52:00,72.6,44.1,30.05,SW,225,0.0,0.0,36,0.00,,SKC,0.00,VWS V14.00,2013-02-02 18:52:00,
2013-02-02 13:57:00,73.0,45.2,30.05,SE,135,0.0,0.0,37,0.00,,SKC,0.00,VWS V14.00,2013-02-02 18:57:00,
2013-02-02 14:02:00,73.0,45.2,30.05,SE,135,0.0,0.0,37,0.00,,SKC,0.00,VWS V14.00,2013-02-02 19:02:00,
2013-02-02 14:08:00,73.2,45.4,30.05,South,180,0.0,0.0,37,0.00,,SKC,0.00,VWS V14.00,2013-02-02 19:08:00,
2013-02-02 14:13:00,73.5,44.9,30.05,SSW,202,0.0,0.0,36,0.00,,SKC,0.00,VWS V14.00,2013-02-02 19:13:00,
2013-02-02 14:18:00,73.9,45.3,30.04,South,180,0.0,0.0,36,0.00,,SKC,0.00,VWS V14.00,2013-02-02 19:18:00,
2013-02-02 14:23:00,73.9,45.3,30.04,SW,225,0.0,0.0,36,0.00,,SKC,0.00,VWS V14.00,2013-02-02 19:23:00,
2013-02-02 14:28:00,73.9,45.3,30.04,SW,225,0.0,0.0,36,0.00,,SKC,0.00,VWS V14.00,2013-02-02 19:28:00,
2013-02-02 14:33:00,74.1,44.7,30.03,West,270,0.0,0.0,35,0.00,,SKC,0.00,VWS V14.00,2013-02-02 19:33:00,
2013-02-02 14:38:00,74.1,44.7,30.04,South,180,0.0,0.0,35,0.00,,SKC,0.00,VWS V14.00,2013-02-02 19:38:00,
2013-02-02 14:43:00,74.1,44.7,30.03,NW,315,0.0,0.0,35,0.00,,SKC,0.00,VWS V14.00,2013-02-02 19:43:00,
2013-02-02 14:48:00,74.1,44.0,30.03,South,180,0.0,0.0,34,0.00,,SKC,0.00,VWS V14.00,2013-02-02 19:48:00,
2013-02-02 14:53:00,74.1,44.0,30.03,SSW,202,0.0,0.0,34,0.00,,SKC,0.00,VWS V14.00,2013-02-02 19:53:00,
2013-02-02 14:58:00,74.1,44.0,30.02,SSW,202,0.0,0.0,34,0.00,,SKC,0.00,VWS V14.00,2013-02-02 19:58:00,
2013-02-02 15:03:00,74.1,44.0,30.02,SW,225,0.0,0.0,34,0.00,,SKC,0.00,VWS V14.00,2013-02-02 20:03:00,
2013-02-02 15:09:00,73.9,43.0,30.02,NW,315,0.0,0.0,33,0.00,,SKC,0.00,VWS V14.00,2013-02-02 20:09:00,
2013-02-02 15:14:00,73.9,43.8,30.02,West,270,0.0,0.0,34,0.00,,SKC,0.00,VWS V14.00,2013-02-02 20:14:00,
2013-02-02 15:19:00,73.7,43.6,30.01,SE,135,0.0,0.0,34,0.00,,SKC,0.00,VWS V14.00,2013-02-02 20:19:00,
2013-02-02 15:24:00,73.9,43.8,30.02,SW,225,0.0,0.0,34,0.00,,SKC,0.00,VWS V14.00,2013-02-02 20:24:00,
2013-02-02 15:29:00,73.9,43.8,30.02,SSE,158,0.0,0.0,34,0.00,,SKC,0.00,VWS V14.00,2013-02-02 20:29:00,
2013-02-02 15:34:00,73.9,43.8,30.01,South,180,0.0,0.0,34,0.00,,SKC,0.00,VWS V14.00,2013-02-02 20:34:00,
2013-02-02 15:39:00,73.9,43.8,30.01,East,90,0.0,0.0,34,0.00,,SKC,0.00,VWS V14.00,2013-02-02 20:39:00,
2013-02-02 15:44:00,73.9,43.8,30.01,SSW,202,0.0,0.0,34,0.00,,SKC,0.00,VWS V14.00,2013-02-02 20:44:00,
2013-02-02 15:49:00,73.7,44.4,30.01,WSW,248,0.0,0.0,35,0.00,,SKC,0.00,VWS V14.00,2013-02-02 20:49:00,
2013-02-02 15:54:00,73.7,44.4,30.01,NNW,338,0.0,0.0,35,0.00,,SKC,0.00,VWS V14.00,2013-02-02 20:54:00,
2013-02-02 15:59:00,73.5,44.2,30.01,SW,225,0.0,0.0,35,0.00,,SKC,0.00,VWS V14.00,2013-02-02 20:59:00,
2013-02-02 16:04:00,73.4,44.1,30.01,SSE,158,0.0,0.0,35,0.00,,SKC,0.00,VWS V14.00,2013-02-02 21:04:00,
2013-02-02 16:10:00,73.2,43.9,30.01,South,180,0.0,0.0,35,0.00,,SKC,0.00,VWS V14.00,2013-02-02 21:10:00,
2013-02-02 16:15:00,73.2,43.9,30.01,SSW,202,0.0,0.0,35,0.00,,SKC,0.00,VWS V14.00,2013-02-02 21:15:00,
2013-02-02 16:20:00,73.0,43.8,30.01,SSW,202,0.0,0.0,35,0.00,,SKC,0.00,VWS V14.00,2013-02-02 21:20:00,
2013-02-02 16:25:00,72.8,43.6,30.01,SSE,158,0.0,0.0,35,0.00,,SKC,0.00,VWS V14.00,2013-02-02 21:25:00,
2013-02-02 16:30:00,72.6,43.4,30.00,SSW,202,0.0,0.0,35,0.00,,SKC,0.00,VWS V14.00,2013-02-02 21:30:00,
2013-02-02 16:35:00,72.3,43.9,30.00,SSW,202,0.0,0.0,36,0.00,,SKC,0.00,VWS V14.00,2013-02-02 21:35:00,
2013-02-02 16:40:00,72.1,43.7,30.01,West,270,0.0,0.0,36,0.00,,SKC,0.00,VWS V14.00,2013-02-02 21:40:00,
2013-02-02 16:45:00,72.1,43.7,30.00,NW,315,0.0,0.0,36,0.00,,SKC,0.00,VWS V14.00,2013-02-02 21:45:00,
2013-02-02 16:50:00,71.9,43.5,30.00,NW,315,0.0,0.0,36,0.00,,SKC,0.00,VWS V14.00,2013-02-02 21:50:00,
2013-02-02 16:55:00,71.7,44.1,30.00,SSE,158,0.0,0.0,37,0.00,,SKC,0.00,VWS V14.00,2013-02-02 21:55:00,
2013-02-02 17:00:00,71.7,43.3,30.00,SSE,158,0.0,0.0,36,0.00,,SKC,0.00,VWS V14.00,2013-02-02 22:00:00,
2013-02-02 17:05:00,71.4,43.8,30.00,South,180,0.0,0.0,37,0.00,,SKC,0.00,VWS V14.00,2013-02-02 22:05:00,
2013-02-02 17:11:00,71.2,43.6,30.00,South,180,0.0,0.0,37,0.00,,SKC,0.00,VWS V14.00,2013-02-02 22:11:00,
2013-02-02 17:16:00,71.2,44.3,30.00,South,180,0.0,0.0,38,0.00,,SKC,0.00,VWS V14.00,2013-02-02 22:16:00,
2013-02-02 17:21:00,70.8,43.3,30.00,South,180,0.0,0.0,37,0.00,,SKC,0.00,VWS V14.00,2013-02-02 22:21:00,
2013-02-02 17:26:00,70.7,43.9,30.00,SSW,202,0.0,0.0,38,0.00,,SKC,0.00,VWS V14.00,2013-02-02 22:26:00,
2013-02-02 17:31:00,70.5,43.7,30.00,SSW,202,0.0,0.0,38,0.00,,SKC,0.00,VWS V14.00,2013-02-02 22:31:00,
2013-02-02 17:36:00,70.3,44.2,30.00,SSW,202,0.0,0.0,39,0.00,,SKC,0.00,VWS V14.00,2013-02-02 22:36:00,
2013-02-02 17:41:00,69.9,43.8,30.00,SSW,202,0.0,0.0,39,0.00,,SKC,0.00,VWS V14.00,2013-02-02 22:41:00,
2013-02-02 17:46:00,69.6,43.6,30.00,SSW,202,0.0,0.0,39,0.00,,SKC,0.00,VWS V14.00,2013-02-02 22:46:00,
2013-02-02 17:51:00,69.4,44.1,30.00,SSW,202,0.0,0.0,40,0.00,,SKC,0.00,VWS V14.00,2013-02-02 22:51:00,
2013-02-02 17:56:00,69.0,43.7,30.00,SSW,202,0.0,0.0,40,0.00,,SKC,0.00,VWS V14.00,2013-02-02 22:56:00,
2013-02-02 18:01:00,68.7,43.4,30.00,SSW,202,0.0,0.0,40,0.00,,SKC,0.00,VWS V14.00,2013-02-02 23:01:00,
2013-02-02 18:06:00,68.3,43.7,30.00,SSW,202,0.0,0.0,41,0.00,,SKC,0.00,VWS V14.00,2013-02-02 23:06:00,
2013-02-02 18:12:00,67.8,43.3,30.00,SSW,202,0.0,0.0,41,0.00,,SKC,0.00,VWS V14.00,2013-02-02 23:12:00,
2013-02-02 18:17:00,67.6,43.1,30.00,SSW,202,0.0,0.0,41,0.00,,SKC,0.00,VWS V14.00,2013-02-02 23:17:00,
2013-02-02 18:22:00,67.1,43.3,30.00,SSW,202,0.0,0.0,42,0.00,,SKC,0.00,VWS V14.00,2013-02-02 23:22:00,
2013-02-02 18:27:00,66.9,43.7,30.00,SSW,202,0.0,0.0,43,0.00,,SKC,0.00,VWS V14.00,2013-02-02 23:27:00,
2013-02-02 18:32:00,66.3,43.2,30.00,SSW,202,0.0,0.0,43,0.00,,SKC,0.00,VWS V14.00,2013-02-02 23:32:00,
2013-02-02 18:37:00,66.0,42.9,30.00,SSW,202,0.0,0.0,43,0.00,,SKC,0.00,VWS V14.00,2013-02-02 23:37:00,
2013-02-02 18:42:00,65.4,42.9,30.01,SSW,202,0.0,0.0,44,0.00,,SKC,0.00,VWS V14.00,2013-02-02 23:42:00,
2013-02-02 18:47:00,65.1,43.3,30.00,SSW,202,0.0,0.0,45,0.00,,SKC,0.00,VWS V14.00,2013-02-02 23:47:00,
2013-02-02 18:53:00,64.7,43.5,30.00,SSW,202,0.0,0.0,46,0.00,,SKC,0.00,VWS V14.00,2013-02-02 23:53:00,
2013-02-02 18:58:00,64.4,43.8,30.01,SSW,202,0.0,0.0,47,0.00,,SKC,0.00,VWS V14.00,2013-02-02 23:58:00,
2013-02-02 19:03:00,64.0,44.5,30.01,SSW,202,0.0,0.0,49,0.00,,SKC,0.00,VWS V14.00,2013-02-03 00:03:00,
2013-02-02 19:08:00,63.5,44.5,30.01,SSW,202,0.0,0.0,50,0.00,,SKC,0.00,VWS V14.00,2013-02-03 00:08:00,
2013-02-02 19:13:00,63.3,44.9,30.01,SSW,202,0.0,0.0,51,0.00,,SKC,0.00,VWS V14.00,2013-02-03 00:13:00,
2013-02-02 19:18:00,62.9,45.5,30.01,SSW,202,0.0,0.0,53,0.00,,SKC,0.00,VWS V14.00,2013-02-03 00:18:00,
2013-02-02 19:23:00,62.6,45.2,30.01,SSW,202,0.0,0.0,53,0.00,,SKC,0.00,VWS V14.00,2013-02-03 00:23:00,
2013-02-02 19:28:00,62.2,45.8,30.01,SSW,202,0.0,0.0,55,0.00,,SKC,0.00,VWS V14.00,2013-02-03 00:28:00,
2013-02-02 19:33:00,61.8,45.5,30.01,SSW,202,0.0,0.0,55,0.00,,SKC,0.00,VWS V14.00,2013-02-03 00:33:00,
2013-02-02 19:38:00,61.7,45.9,30.01,SSW,202,0.0,0.0,56,0.00,,SKC,0.00,VWS V14.00,2013-02-03 00:38:00,
2013-02-02 19:43:00,61.3,46.0,30.02,SSW,202,0.0,0.0,57,0.00,,SKC,0.00,VWS V14.00,2013-02-03 00:43:00,
2013-02-02 19:48:00,61.1,45.8,30.01,SSW,202,0.0,0.0,57,0.00,,SKC,0.00,VWS V14.00,2013-02-03 00:48:00,
2013-02-02 19:54:00,60.8,46.0,30.02,SSW,202,0.0,0.0,58,0.00,,SKC,0.00,VWS V14.00,2013-02-03 00:54:00,
2013-02-02 19:59:00,60.4,46.0,30.02,SSW,202,0.0,0.0,59,0.00,,SKC,0.00,VWS V14.00,2013-02-03 00:59:00,
2013-02-02 20:04:00,60.4,46.0,30.02,SSW,202,0.0,0.0,59,0.00,,SKC,0.00,VWS V14.00,2013-02-03 01:04:00,
2013-02-02 20:09:00,59.9,45.5,30.02,SSW,202,0.0,0.0,59,0.00,,SKC,0.00,VWS V14.00,2013-02-03 01:09:00,
2013-02-02 20:14:00,59.7,45.4,30.02,SSW,202,0.0,0.0,59,0.00,,SKC,0.00,VWS V14.00,2013-02-03 01:14:00,
2013-02-02 20:19:00,59.5,45.2,30.03,SSW,202,0.0,0.0,59,0.00,,SKC,0.00,VWS V14.00,2013-02-03 01:19:00,
2013-02-02 20:24:00,59.1,44.8,30.03,SSW,202,0.0,0.0,59,0.00,,SKC,0.00,VWS V14.00,2013-02-03 01:24:00,
2013-02-02 20:29:00,59.1,44.8,30.03,SSW,202,0.0,0.0,59,0.00,,SKC,0.00,VWS V14.00,2013-02-03 01:29:00,
2013-02-02 20:35:00,59.0,44.7,30.03,SSW,202,0.0,0.0,59,0.00,,SKC,0.00,VWS V14.00,2013-02-03 01:35:00,
2013-02-02 20:40:00,59.0,45.2,30.03,SSW,202,0.0,0.0,60,0.00,,SKC,0.00,VWS V14.00,2013-02-03 01:40:00,
2013-02-02 20:45:00,59.0,45.6,30.02,SSW,202,0.0,0.0,61,0.00,,SKC,0.00,VWS V14.00,2013-02-03 01:45:00,
2013-02-02 20:50:00,58.6,45.2,30.03,SSW,202,0.0,0.0,61,0.00,,SKC,0.00,VWS V14.00,2013-02-03 01:50:00,
2013-02-02 20:55:00,58.4,45.5,30.03,SSW,202,0.0,0.0,62,0.00,,SKC,0.00,VWS V14.00,2013-02-03 01:55:00,
2013-02-02 21:00:00,58.2,45.3,30.03,SSW,202,0.0,0.0,62,0.00,,SKC,0.00,VWS V14.00,2013-02-03 02:00:00,
2013-02-02 21:05:00,58.1,46.0,30.03,SSW,202,0.0,0.0,64,0.00,,SKC,0.00,VWS V14.00,2013-02-03 02:05:00,
2013-02-02 21:10:00,57.9,45.8,30.03,SSW,202,0.0,0.0,64,0.00,,SKC,0.00,VWS V14.00,2013-02-03 02:10:00,
2013-02-02 21:15:00,57.7,45.6,30.03,SSW,202,0.0,0.0,64,0.00,,SKC,0.00,VWS V14.00,2013-02-03 02:15:00,
2013-02-02 21:20:00,57.7,45.6,30.03,SSW,202,0.0,0.0,64,0.00,,SKC,0.00,VWS V14.00,2013-02-03 02:20:00,
2013-02-02 21:26:00,57.5,45.4,30.03,SSW,202,0.0,0.0,64,0.00,,SKC,0.00,VWS V14.00,2013-02-03 02:26:00,
2013-02-02 21:31:00,57.5,45.8,30.03,SSW,202,0.0,0.0,65,0.00,,SKC,0.00,VWS V14.00,2013-02-03 02:31:00,
2013-02-02 21:36:00,57.3,45.7,30.03,SSW,202,0.0,0.0,65,0.00,,SKC,0.00,VWS V14.00,2013-02-03 02:36:00,
2013-02-02 21:41:00,57.0,45.4,30.03,SSW,202,0.0,0.0,65,0.00,,SKC,0.00,VWS V14.00,2013-02-03 02:41:00,
2013-02-02 21:46:00,57.0,45.4,30.03,SSW,202,0.0,0.0,65,0.00,,SKC,0.00,VWS V14.00,2013-02-03 02:46:00,
2013-02-02 21:51:00,56.8,45.6,30.03,SSW,202,0.0,0.0,66,0.00,,SKC,0.00,VWS V14.00,2013-02-03 02:51:00,
2013-02-02 21:56:00,56.8,45.6,30.03,SSW,202,0.0,0.0,66,0.00,,SKC,0.00,VWS V14.00,2013-02-03 02:56:00,
2013-02-02 22:01:00,56.6,45.8,30.02,SSW,202,0.0,0.0,67,0.00,,SKC,0.00,VWS V14.00,2013-02-03 03:01:00,
2013-02-02 22:06:00,56.4,45.6,30.02,SSW,202,0.0,0.0,67,0.00,,SKC,0.00,VWS V14.00,2013-02-03 03:06:00,
2013-02-02 22:11:00,56.3,45.9,30.02,SSW,202,0.0,0.0,68,0.00,,SKC,0.00,VWS V14.00,2013-02-03 03:11:00,
2013-02-02 22:16:00,56.1,45.7,30.02,SSW,202,0.0,0.0,68,0.00,,SKC,0.00,VWS V14.00,2013-02-03 03:16:00,
2013-02-02 22:22:00,56.1,46.1,30.03,SSW,202,0.0,0.0,69,0.00,,SKC,0.00,VWS V14.00,2013-02-03 03:22:00,
2013-02-02 22:27:00,55.9,45.9,30.03,SSW,202,0.0,0.0,69,0.00,,SKC,0.00,VWS V14.00,2013-02-03 03:27:00,
2013-02-02 22:32:00,55.7,46.1,30.03,SSW,202,0.0,0.0,70,0.00,,SKC,0.00,VWS V14.00,2013-02-03 03:32:00,
2013-02-02 22:37:00,55.5,45.9,30.02,SSW,202,0.0,0.0,70,0.00,,SKC,0.00,VWS V14.00,2013-02-03 03:37:00,
2013-02-02 22:42:00,55.4,45.8,30.02,SSW,202,0.0,0.0,70,0.00,,SKC,0.00,VWS V14.00,2013-02-03 03:42:00,
2013-02-02 22:47:00,55.2,46.0,30.02,SSW,202,0.0,0.0,71,0.00,,SKC,0.00,VWS V14.00,2013-02-03 03:47:00,
2013-02-02 22:52:00,55.2,46.0,30.02,SSW,202,0.0,0.0,71,0.00,,SKC,0.00,VWS V14.00,2013-02-03 03:52:00,
2013-02-02 22:57:00,55.0,45.8,30.03,SSW,202,0.0,0.0,71,0.00,,SKC,0.00,VWS V14.00,2013-02-03 03:57:00,
2013-02-02 23:02:00,54.8,46.0,30.03,SSW,202,0.0,0.0,72,0.00,,SKC,0.00,VWS V14.00,2013-02-03 04:02:00,
2013-02-02 23:07:00,54.6,45.8,30.03,SSW,202,0.0,0.0,72,0.00,,SKC,0.00,VWS V14.00,2013-02-03 04:07:00,
2013-02-02 23:12:00,54.5,45.7,30.03,SSW,202,0.0,0.0,72,0.00,,SKC,0.00,VWS V14.00,2013-02-03 04:12:00,
2013-02-02 23:17:00,54.5,46.0,30.03,SSW,202,0.0,0.0,73,0.00,,SKC,0.00,VWS V14.00,2013-02-03 04:17:00,
2013-02-02 23:23:00,54.3,45.8,30.02,SSW,202,0.0,0.0,73,0.00,,SKC,0.00,VWS V14.00,2013-02-03 04:23:00,
2013-02-02 23:28:00,54.1,46.0,30.02,SSW,202,0.0,0.0,74,0.00,,SKC,0.00,VWS V14.00,2013-02-03 04:28:00,
2013-02-02 23:33:00,54.1,46.0,30.02,SSW,202,0.0,0.0,74,0.00,,SKC,0.00,VWS V14.00,2013-02-03 04:33:00,
2013-02-02 23:38:00,53.9,45.8,30.02,SSW,202,0.0,0.0,74,0.00,,SKC,0.00,VWS V14.00,2013-02-03 04:38:00,
2013-02-02 23:43:00,53.9,46.2,30.02,SSW,202,0.0,0.0,75,0.00,,SKC,0.00,VWS V14.00,2013-02-03 04:43:00,
2013-02-02 23:48:00,53.7,46.0,30.02,SSW,202,0.0,0.0,75,0.00,,SKC,0.00,VWS V14.00,2013-02-03 04:48:00,
2013-02-02 23:53:00,53.7,46.3,30.02,SSW,202,0.0,0.0,76,0.00,,SKC,0.00,VWS V14.00,2013-02-03 04:53:00,
2013-02-02 23:58:00,53.6,46.2,30.02,SSW,202,0.0,0.0,76,0.00,,SKC,0.00,VWS V14.00,2013-02-03 04:58:00,